Time,TemperatureF,DewpointF,PressureIn,WindDirection,WindDirectionDegrees,WindSpeedMPH,WindSpeedGustMPH,Humidity,HourlyPrecipIn,Conditions,Clouds,dailyrainin,SoftwareType,DateUTC
2013-02-27 00:00:00,28.8,25.7,28.05,ENE,68,10.3,13.2,88,0.00,,---,0.00,VWS V14.01,2013-02-27 05:00:00,
2013-02-27 00:05:00,28.4,25.9,28.08,ESE,112,17.9,17.9,90,0.00,,---,0.00,VWS V14.01,2013-02-27 05:05:00,
2013-02-27 00:10:00,28.0,26.3,28.08,SE,135,11.0,18.1,93,0.00,,---,0.00,VWS V14.01,2013-02-27 05:10:00,
2013-02-27 00:15:00,27.9,26.9,28.08,ESE,112,14.3,15.2,96,0.00,,---,0.00,VWS V14.01,2013-02-27 05:15:00,
2013-02-27 00:20:00,27.9,27.1,28.05,SSE,158,5.8,7.2,97,0.00,,---,0.00,VWS V14.01,2013-02-27 05:20:00,
2013-02-27 00:25:00,27.9,27.1,28.05,SE,135,7.6,7.6,97,0.00,,---,0.00,VWS V14.01,2013-02-27 05:25:00,
2013-02-27 00:30:00,27.9,27.1,28.05,ESE,112,6.0,9.8,97,0.00,,---,0.00,VWS V14.01,2013-02-27 05:30:00,
2013-02-27 00:35:00,27.9,26.9,28.05,ESE,112,10.1,10.1,96,0.00,,---,0.00,VWS V14.01,2013-02-27 05:35:00,
2013-02-27 00:40:00,27.9,26.9,28.05,SE,135,10.1,10.1,96,0.00,,---,0.00,VWS V14.01,2013-02-27 05:40:00,
2013-02-27 00:45:00,27.9,27.1,28.05,ESE,112,8.7,8.7,97,0.00,,---,0.00,VWS V14.01,2013-02-27 05:45:00,
2013-02-27 00:50:00,27.7,27.2,28.08,ESE,112,7.8,10.3,98,0.00,,---,0.00,VWS V14.01,2013-02-27 05:50:00,
2013-02-27 00:55:00,27.5,27.0,28.08,ESE,112,7.8,7.8,98,0.00,,---,0.00,VWS V14.01,2013-02-27 05:55:00,
2013-02-27 01:00:00,27.5,27.0,28.08,East,90,12.3,12.3,98,0.00,,---,0.00,VWS V14.01,2013-02-27 06:00:00,
2013-02-27 01:05:00,27.5,27.0,28.05,ESE,112,6.5,7.6,98,0.00,,---,0.00,VWS V14.01,2013-02-27 06:05:00,
2013-02-27 01:10:00,27.3,26.8,28.05,ESE,112,12.8,12.8,98,0.00,,---,0.00,VWS V14.01,2013-02-27 06:10:00,
2013-02-27 01:15:00,27.3,26.8,28.05,East,90,15.2,15.2,98,0.00,,---,0.00,VWS V14.01,2013-02-27 06:15:00,
2013-02-27 01:20:00,27.3,26.8,28.05,ESE,112,13.2,17.0,98,0.00,,---,0.00,VWS V14.01,2013-02-27 06:20:00,
2013-02-27 01:25:00,27.1,26.6,28.05,ESE,112,9.4,9.8,98,0.00,,---,0.00,VWS V14.01,2013-02-27 06:25:00,
2013-02-27 01:30:00,27.1,26.6,28.05,ESE,112,9.8,9.8,98,0.00,,---,0.00,VWS V14.01,2013-02-27 06:30:00,
2013-02-27 01:35:00,27.1,26.6,28.05,SE,135,6.3,6.3,98,0.00,,---,0.00,VWS V14.01,2013-02-27 06:35:00,
2013-02-27 01:40:00,27.1,26.6,28.05,ESE,112,5.8,7.2,98,0.00,,---,0.00,VWS V14.01,2013-02-27 06:40:00,
2013-02-27 01:45:00,27.1,26.6,28.05,ESE,112,9.8,9.8,98,0.00,,---,0.00,VWS V14.01,2013-02-27 06:45:00,
2013-02-27 01:50:00,27.1,26.6,28.05,ENE,68,5.4,6.9,98,0.00,,---,0.00,VWS V14.01,2013-02-27 06:50:00,
2013-02-27 01:55:00,27.1,26.6,28.05,ESE,112,5.4,5.4,98,0.00,,---,0.00,VWS V14.01,2013-02-27 06:55:00,
2013-02-27 02:00:00,27.1,26.6,28.05,SE,135,7.4,7.4,98,0.00,,---,0.00,VWS V14.01,2013-02-27 07:00:00,
2013-02-27 02:05:00,27.1,26.6,28.05,SE,135,5.4,8.7,98,0.00,,---,0.00,VWS V14.01,2013-02-27 07:05:00,
2013-02-27 02:10:00,27.1,26.6,28.05,East,90,10.1,10.7,98,0.00,,---,0.00,VWS V14.01,2013-02-27 07:10:00,
2013-02-27 02:15:00,27.3,26.8,28.05,East,90,9.6,10.3,98,0.00,,---,0.00,VWS V14.01,2013-02-27 07:15:00,
2013-02-27 02:20:00,27.3,26.8,28.05,ESE,112,12.5,12.5,98,0.00,,---,0.00,VWS V14.01,2013-02-27 07:20:00,
2013-02-27 02:25:00,27.3,26.8,28.05,ESE,112,10.3,14.8,98,0.00,,---,0.00,VWS V14.01,2013-02-27 07:25:00,
2013-02-27 02:30:00,27.5,27.0,28.05,ESE,112,6.0,13.2,98,0.00,,---,0.00,VWS V14.01,2013-02-27 07:30:00,
2013-02-27 02:35:00,27.5,27.0,28.02,ESE,112,11.4,13.2,98,0.00,,---,0.00,VWS V14.01,2013-02-27 07:35:00,
2013-02-27 02:40:00,27.5,27.0,28.02,SE,135,6.9,11.0,98,0.00,,---,0.00,VWS V14.01,2013-02-27 07:40:00,
2013-02-27 02:45:00,27.7,27.2,28.02,East,90,8.1,8.1,98,0.00,,---,0.00,VWS V14.01,2013-02-27 07:45:00,
2013-02-27 02:50:00,27.7,27.2,28.02,ESE,112,9.4,9.4,98,0.00,,---,0.00,VWS V14.01,2013-02-27 07:50:00,
2013-02-27 02:55:00,27.7,27.2,28.02,East,90,8.5,8.5,98,0.00,,---,0.00,VWS V14.01,2013-02-27 07:55:00,
2013-02-27 03:00:00,27.5,27.0,28.02,SSE,158,10.7,10.7,98,0.00,,---,0.00,VWS V14.01,2013-02-27 08:00:00,
2013-02-27 03:05:00,27.7,27.2,28.02,East,90,6.5,6.5,98,0.00,,---,0.00,VWS V14.01,2013-02-27 08:05:00,
2013-02-27 03:10:00,27.7,27.2,28.02,East,90,1.1,9.8,98,0.00,,---,0.00,VWS V14.01,2013-02-27 08:10:00,
2013-02-27 03:15:00,27.7,27.2,28.02,ESE,112,6.0,6.0,98,0.00,,---,0.00,VWS V14.01,2013-02-27 08:15:00,
2013-02-27 03:20:00,27.7,27.2,28.02,ENE,68,4.0,9.8,98,0.00,,---,0.00,VWS V14.01,2013-02-27 08:20:00,
2013-02-27 03:25:00,27.7,27.2,28.02,ESE,112,7.2,7.2,98,0.00,,---,0.00,VWS V14.01,2013-02-27 08:25:00,
2013-02-27 03:30:00,27.7,27.2,28.02,NNE,22,9.2,17.2,98,0.00,,---,0.00,VWS V14.01,2013-02-27 08:30:00,
2013-02-27 03:35:00,27.7,27.2,27.96,ESE,112,5.4,5.8,98,0.00,,---,0.00,VWS V14.01,2013-02-27 08:35:00,
2013-02-27 03:40:00,27.7,27.2,27.96,East,90,5.6,5.8,98,0.00,,---,0.00,VWS V14.01,2013-02-27 08:40:00,
2013-02-27 03:45:00,27.7,27.2,27.96,ESE,112,4.7,8.1,98,0.00,,---,0.00,VWS V14.01,2013-02-27 08:45:00,
2013-02-27 03:50:00,27.7,27.2,27.96,ESE,112,6.5,6.5,98,0.00,,---,0.00,VWS V14.01,2013-02-27 08:50:00,
2013-02-27 03:55:00,27.7,27.2,27.96,ESE,112,8.1,10.7,98,0.00,,---,0.00,VWS V14.01,2013-02-27 08:55:00,
2013-02-27 04:00:00,27.9,27.4,27.96,ENE,68,8.5,8.5,98,0.00,,---,0.00,VWS V14.01,2013-02-27 09:00:00,
2013-02-27 04:05:00,27.9,27.4,27.96,East,90,5.4,9.8,98,0.00,,---,0.00,VWS V14.01,2013-02-27 09:05:00,
2013-02-27 04:10:00,27.9,27.4,27.96,ENE,68,12.3,12.3,98,0.00,,---,0.00,VWS V14.01,2013-02-27 09:10:00,
2013-02-27 04:15:00,28.0,27.5,27.96,ESE,112,4.3,7.6,98,0.00,,---,0.00,VWS V14.01,2013-02-27 09:15:00,
2013-02-27 04:20:00,28.0,27.5,27.96,ESE,112,0.0,6.5,98,0.00,,---,0.00,VWS V14.01,2013-02-27 09:20:00,
2013-02-27 04:25:00,28.2,27.7,27.96,ESE,112,10.5,13.0,98,0.00,,---,0.00,VWS V14.01,2013-02-27 09:25:00,
2013-02-27 04:30:00,28.2,27.7,27.96,ESE,112,5.4,6.5,98,0.00,,---,0.00,VWS V14.01,2013-02-27 09:30:00,
2013-02-27 04:35:00,28.2,27.7,27.96,ESE,112,11.0,11.0,98,0.00,,---,0.00,VWS V14.01,2013-02-27 09:35:00,
2013-02-27 04:40:00,28.2,27.7,27.96,ESE,112,6.3,10.5,98,0.00,,---,0.00,VWS V14.01,2013-02-27 09:40:00,
2013-02-27 04:45:00,28.4,27.9,27.96,SE,135,10.1,13.2,98,0.00,,---,0.00,VWS V14.01,2013-02-27 09:45:00,
2013-02-27 04:50:00,28.4,27.9,27.96,ESE,112,7.8,8.1,98,0.00,,---,0.00,VWS V14.01,2013-02-27 09:50:00,
2013-02-27 04:55:00,28.6,28.1,27.96,ESE,112,9.4,10.5,98,0.00,,---,0.00,VWS V14.01,2013-02-27 09:55:00,
2013-02-27 05:00:00,28.6,28.1,27.96,ESE,112,10.7,10.7,98,0.00,,---,0.00,VWS V14.01,2013-02-27 10:00:00,
2013-02-27 05:05:00,28.6,28.1,27.93,East,90,6.0,10.5,98,0.00,,---,0.00,VWS V14.01,2013-02-27 10:05:00,
2013-02-27 05:10:00,28.8,28.3,27.93,East,90,7.8,12.8,98,0.00,,---,0.00,VWS V14.01,2013-02-27 10:10:00,
2013-02-27 05:15:00,28.8,28.3,27.93,ESE,112,14.8,14.8,98,0.00,,---,0.00,VWS V14.01,2013-02-27 10:15:00,
2013-02-27 05:20:00,29.1,28.6,27.93,ESE,112,10.1,13.0,98,0.00,,---,0.00,VWS V14.01,2013-02-27 10:20:00,
2013-02-27 05:25:00,29.3,28.8,27.93,ESE,112,12.8,14.5,98,0.00,,---,0.00,VWS V14.01,2013-02-27 10:25:00,
2013-02-27 05:30:00,29.3,28.8,27.93,ESE,112,7.2,15.2,98,0.00,,---,0.00,VWS V14.01,2013-02-27 10:30:00,
2013-02-27 05:35:00,29.5,29.0,27.90,ESE,112,10.3,12.5,98,0.00,,---,0.00,VWS V14.01,2013-02-27 10:35:00,
2013-02-27 05:40:00,29.5,29.0,27.90,ESE,112,12.3,12.5,98,0.00,,---,0.00,VWS V14.01,2013-02-27 10:40:00,
2013-02-27 05:45:00,29.5,29.0,27.90,ESE,112,9.6,9.6,98,0.00,,---,0.00,VWS V14.01,2013-02-27 10:45:00,
2013-02-27 05:50:00,29.5,29.0,27.90,ESE,112,6.7,8.5,98,0.00,,---,0.00,VWS V14.01,2013-02-27 10:50:00,
2013-02-27 05:55:00,29.5,29.0,27.90,ESE,112,15.2,15.2,98,0.00,,---,0.00,VWS V14.01,2013-02-27 10:55:00,
2013-02-27 06:00:00,29.5,29.0,27.90,SE,135,5.4,10.1,98,0.00,,---,0.00,VWS V14.01,2013-02-27 11:00:00,
2013-02-27 06:05:00,29.7,29.2,27.90,ENE,68,12.1,12.1,98,0.00,,---,0.00,VWS V14.01,2013-02-27 11:05:00,
2013-02-27 06:10:00,29.8,29.3,27.90,ESE,112,8.5,8.5,98,0.00,,---,0.00,VWS V14.01,2013-02-27 11:10:00,
2013-02-27 06:15:00,29.8,29.3,27.90,ESE,112,8.1,10.3,98,0.00,,---,0.00,VWS V14.01,2013-02-27 11:15:00,
2013-02-27 06:20:00,30.0,29.5,27.88,ENE,68,6.0,6.0,98,0.00,,---,0.00,VWS V14.01,2013-02-27 11:20:00,
2013-02-27 06:25:00,30.0,29.5,27.88,ESE,112,6.3,12.3,98,0.00,,---,0.00,VWS V14.01,2013-02-27 11:25:00,
2013-02-27 06:30:00,30.0,29.5,27.88,East,90,11.2,11.2,98,0.00,,---,0.00,VWS V14.01,2013-02-27 11:30:00,
2013-02-27 06:35:00,29.8,29.3,27.88,ESE,112,11.0,11.0,98,0.00,,---,0.00,VWS V14.01,2013-02-27 11:35:00,
2013-02-27 06:40:00,30.0,29.5,27.88,ENE,68,5.4,12.8,98,0.00,,---,0.00,VWS V14.01,2013-02-27 11:40:00,
2013-02-27 06:45:00,30.0,29.5,27.88,ESE,112,6.0,6.0,98,0.00,,---,0.00,VWS V14.01,2013-02-27 11:45:00,
2013-02-27 06:50:00,30.2,29.7,27.85,ESE,112,4.0,12.8,98,0.00,,---,0.00,VWS V14.01,2013-02-27 11:50:00,
2013-02-27 06:55:00,30.4,29.9,27.85,ESE,112,10.7,10.7,98,0.00,,---,0.00,VWS V14.01,2013-02-27 11:55:00,
2013-02-27 07:00:00,30.9,30.4,27.85,ESE,112,4.9,9.8,98,0.00,,---,0.00,VWS V14.01,2013-02-27 12:00:00,
2013-02-27 07:05:00,31.1,30.6,27.85,ESE,112,12.8,12.8,98,0.00,,---,0.00,VWS V14.01,2013-02-27 12:05:00,
2013-02-27 07:10:00,31.3,30.8,27.85,ESE,112,11.0,11.0,98,0.00,,---,0.00,VWS V14.01,2013-02-27 12:10:00,
2013-02-27 07:15:00,31.5,31.0,27.85,ESE,112,6.0,11.2,98,0.00,,---,0.00,VWS V14.01,2013-02-27 12:15:00,
2013-02-27 07:20:00,31.8,31.3,27.85,ESE,112,8.5,10.3,98,0.00,,---,0.00,VWS V14.01,2013-02-27 12:20:00,
2013-02-27 07:25:00,32.0,31.5,27.85,East,90,15.4,15.4,98,0.00,,---,0.00,VWS V14.01,2013-02-27 12:25:00,
2013-02-27 07:30:00,32.2,31.7,27.85,ESE,112,4.0,9.0,98,0.00,,---,0.00,VWS V14.01,2013-02-27 12:30:00,
2013-02-27 07:35:00,32.2,31.7,27.85,ESE,112,9.2,15.4,98,0.00,,---,0.00,VWS V14.01,2013-02-27 12:35:00,
2013-02-27 07:40:00,32.4,31.9,27.85,East,90,10.1,10.1,98,0.00,,---,0.00,VWS V14.01,2013-02-27 12:40:00,
2013-02-27 07:45:00,32.4,31.9,27.85,East,90,10.5,14.8,98,0.00,,---,0.00,VWS V14.01,2013-02-27 12:45:00,
2013-02-27 07:50:00,32.7,32.2,27.85,ESE,112,0.0,14.5,98,0.00,,---,0.00,VWS V14.01,2013-02-27 12:50:00,
2013-02-27 07:55:00,32.9,32.4,27.85,East,90,7.4,12.1,98,0.00,,---,0.00,VWS V14.01,2013-02-27 12:55:00,
2013-02-27 08:00:00,33.1,32.6,27.85,ESE,112,5.8,8.5,98,0.00,,---,0.00,VWS V14.01,2013-02-27 13:00:00,
2013-02-27 08:05:00,33.1,32.6,27.82,ESE,112,7.8,12.5,98,0.00,,---,0.00,VWS V14.01,2013-02-27 13:05:00,
2013-02-27 08:10:00,33.3,32.8,27.82,SE,135,10.1,17.9,98,0.00,,---,0.00,VWS V14.01,2013-02-27 13:10:00,
2013-02-27 08:15:00,33.6,33.1,27.82,ESE,112,12.8,12.8,98,0.00,,---,0.00,VWS V14.01,2013-02-27 13:15:00,
2013-02-27 08:20:00,33.6,33.1,27.82,ESE,112,19.0,19.0,98,0.00,,---,0.00,VWS V14.01,2013-02-27 13:20:00,
2013-02-27 08:25:00,33.6,33.1,27.82,ESE,112,8.5,15.4,98,0.00,,---,0.00,VWS V14.01,2013-02-27 13:25:00,
2013-02-27 08:30:00,33.8,33.3,27.82,ENE,68,13.0,17.9,98,0.00,,---,0.00,VWS V14.01,2013-02-27 13:30:00,
2013-02-27 08:35:00,34.0,33.5,27.82,ESE,112,8.1,15.2,98,0.00,,---,0.00,VWS V14.01,2013-02-27 13:35:00,
2013-02-27 08:40:00,34.5,34.0,27.82,ESE,112,13.0,13.0,98,0.00,,---,0.00,VWS V14.01,2013-02-27 13:40:00,
2013-02-27 08:45:00,34.5,34.0,27.82,East,90,10.3,11.0,98,0.00,,---,0.00,VWS V14.01,2013-02-27 13:45:00,
2013-02-27 08:50:00,34.9,34.4,27.79,ESE,112,12.5,12.5,98,0.00,,---,0.00,VWS V14.01,2013-02-27 13:50:00,
2013-02-27 08:55:00,34.9,34.4,27.79,ESE,112,8.5,12.8,98,0.00,,---,0.00,VWS V14.01,2013-02-27 13:55:00,
2013-02-27 09:00:00,34.7,34.2,27.79,ENE,68,10.5,17.0,98,0.00,,---,0.00,VWS V14.01,2013-02-27 14:00:00,
2013-02-27 09:05:00,34.5,34.0,27.76,ENE,68,10.7,17.5,98,0.00,,---,0.00,VWS V14.01,2013-02-27 14:05:00,
2013-02-27 09:10:00,34.7,34.2,27.76,ESE,112,6.0,12.8,98,0.00,,---,0.00,VWS V14.01,2013-02-27 14:10:00,
2013-02-27 09:15:00,34.9,34.4,27.76,East,90,8.1,12.5,98,0.00,,---,0.00,VWS V14.01,2013-02-27 14:15:00,
2013-02-27 09:20:00,34.9,34.4,27.79,ESE,112,11.0,13.4,98,0.00,,---,0.00,VWS V14.01,2013-02-27 14:20:00,
2013-02-27 09:25:00,35.1,34.5,27.79,ESE,112,17.5,17.5,98,0.00,,---,0.00,VWS V14.01,2013-02-27 14:25:00,
2013-02-27 09:30:00,35.2,34.7,27.79,ESE,112,13.6,15.4,98,0.00,,---,0.00,VWS V14.01,2013-02-27 14:30:00,
2013-02-27 09:35:00,35.4,34.9,27.79,ESE,112,12.1,12.1,98,0.00,,---,0.00,VWS V14.01,2013-02-27 14:35:00,
2013-02-27 09:40:00,35.4,34.9,27.79,ESE,112,16.8,16.8,98,0.00,,---,0.00,VWS V14.01,2013-02-27 14:40:00,
2013-02-27 09:45:00,35.6,35.1,27.79,ESE,112,8.1,19.9,98,0.00,,---,0.00,VWS V14.01,2013-02-27 14:45:00,
2013-02-27 09:50:00,35.6,35.1,27.79,ESE,112,16.6,16.6,98,0.00,,---,0.00,VWS V14.01,2013-02-27 14:50:00,
2013-02-27 09:55:00,35.6,34.8,27.79,ESE,112,23.0,23.0,97,0.00,,---,0.00,VWS V14.01,2013-02-27 14:55:00,
2013-02-27 10:00:00,35.4,34.7,27.79,ENE,68,13.0,13.0,97,0.00,,---,0.00,VWS V14.01,2013-02-27 15:00:00,
2013-02-27 10:05:00,35.2,34.7,27.76,ENE,68,7.8,23.0,98,0.00,,---,0.00,VWS V14.01,2013-02-27 15:05:00,
2013-02-27 10:10:00,35.4,34.9,27.76,ENE,68,11.0,13.2,98,0.00,,---,0.00,VWS V14.01,2013-02-27 15:10:00,
2013-02-27 10:15:00,35.2,34.7,27.76,ESE,112,10.5,18.8,98,0.00,,---,0.00,VWS V14.01,2013-02-27 15:15:00,
2013-02-27 10:20:00,35.4,34.9,27.76,ESE,112,14.8,14.8,98,0.00,,---,0.00,VWS V14.01,2013-02-27 15:20:00,
2013-02-27 10:25:00,35.4,34.9,27.76,ENE,68,8.7,13.9,98,0.00,,---,0.00,VWS V14.01,2013-02-27 15:25:00,
2013-02-27 10:30:00,35.4,34.9,27.76,ESE,112,7.6,15.4,98,0.00,,---,0.00,VWS V14.01,2013-02-27 15:30:00,
2013-02-27 10:35:00,35.1,34.5,27.73,ESE,112,8.5,9.6,98,0.00,,---,0.00,VWS V14.01,2013-02-27 15:35:00,
2013-02-27 10:40:00,35.1,34.5,27.73,NNE,22,11.4,13.2,98,0.00,,---,0.00,VWS V14.01,2013-02-27 15:40:00,
2013-02-27 10:45:00,35.1,34.5,27.73,ENE,68,10.3,16.6,98,0.00,,---,0.00,VWS V14.01,2013-02-27 15:45:00,
2013-02-27 10:50:00,35.1,34.5,27.73,ESE,112,16.6,16.6,98,0.00,,---,0.00,VWS V14.01,2013-02-27 15:50:00,
2013-02-27 10:55:00,35.2,34.7,27.73,ESE,112,14.1,14.1,98,0.00,,---,0.00,VWS V14.01,2013-02-27 15:55:00,
2013-02-27 11:00:00,35.1,34.5,27.73,ESE,112,10.7,12.8,98,0.00,,---,0.00,VWS V14.01,2013-02-27 16:00:00,
2013-02-27 11:05:00,35.1,34.5,27.73,SE,135,6.5,10.3,98,0.00,,---,0.00,VWS V14.01,2013-02-27 16:05:00,
2013-02-27 11:10:00,34.7,34.2,27.73,ESE,112,8.1,13.0,98,0.05,,---,0.05,VWS V14.01,2013-02-27 16:10:00,
2013-02-27 11:15:00,34.5,34.0,27.73,ENE,68,7.6,8.1,98,0.05,,---,0.05,VWS V14.01,2013-02-27 16:15:00,
2013-02-27 11:20:00,34.3,33.8,27.73,ESE,112,8.1,17.5,98,0.05,,---,0.05,VWS V14.01,2013-02-27 16:20:00,
2013-02-27 11:25:00,34.2,33.7,27.73,ESE,112,8.7,13.2,98,0.05,,---,0.05,VWS V14.01,2013-02-27 16:25:00,
2013-02-27 11:30:00,34.2,33.7,27.73,ENE,68,9.6,9.8,98,0.05,,---,0.05,VWS V14.01,2013-02-27 16:30:00,
2013-02-27 11:35:00,34.2,33.7,27.73,ESE,112,8.1,13.2,98,0.05,,---,0.05,VWS V14.01,2013-02-27 16:35:00,
2013-02-27 11:40:00,34.3,33.8,27.73,East,90,6.5,7.8,98,0.05,,---,0.05,VWS V14.01,2013-02-27 16:40:00,
2013-02-27 11:45:00,34.3,33.8,27.73,ESE,112,6.5,7.6,98,0.05,,---,0.05,VWS V14.01,2013-02-27 16:45:00,
2013-02-27 11:50:00,34.5,34.0,27.70,East,90,6.5,11.2,98,0.05,,---,0.05,VWS V14.01,2013-02-27 16:50:00,
2013-02-27 11:55:00,34.5,34.0,27.70,ESE,112,8.1,9.6,98,0.05,,---,0.05,VWS V14.01,2013-02-27 16:55:00,
2013-02-27 12:00:00,34.5,34.0,27.70,ENE,68,10.5,10.5,98,0.09,,---,0.09,VWS V14.01,2013-02-27 17:00:00,
2013-02-27 12:05:00,34.7,34.2,27.70,East,90,6.5,7.8,98,0.09,,---,0.09,VWS V14.01,2013-02-27 17:05:00,
2013-02-27 12:10:00,34.5,34.0,27.70,ESE,112,8.5,10.5,98,0.04,,---,0.09,VWS V14.01,2013-02-27 17:10:00,
2013-02-27 12:15:00,34.7,34.2,27.70,ESE,112,6.3,7.4,98,0.04,,---,0.09,VWS V14.01,2013-02-27 17:15:00,
2013-02-27 12:20:00,34.7,34.2,27.70,East,90,7.4,7.4,98,0.04,,---,0.09,VWS V14.01,2013-02-27 17:20:00,
2013-02-27 12:25:00,35.1,34.5,27.70,ESE,112,3.6,7.8,98,0.08,,---,0.13,VWS V14.01,2013-02-27 17:25:00,
2013-02-27 12:30:00,35.4,34.9,27.70,ESE,112,4.3,10.5,98,0.08,,---,0.13,VWS V14.01,2013-02-27 17:30:00,
2013-02-27 12:35:00,35.4,34.9,27.70,ESE,112,8.5,10.7,98,0.08,,---,0.13,VWS V14.01,2013-02-27 17:35:00,
2013-02-27 12:40:00,35.4,34.9,27.70,ENE,68,7.8,10.5,98,0.08,,---,0.13,VWS V14.01,2013-02-27 17:40:00,
2013-02-27 12:45:00,35.4,34.9,27.70,East,90,7.8,8.1,98,0.08,,---,0.13,VWS V14.01,2013-02-27 17:45:00,
2013-02-27 12:50:00,35.4,34.9,27.67,ESE,112,5.4,9.8,98,0.08,,---,0.13,VWS V14.01,2013-02-27 17:50:00,
2013-02-27 12:55:00,35.2,34.7,27.67,ESE,112,14.1,14.1,98,0.12,,---,0.17,VWS V14.01,2013-02-27 17:55:00,
2013-02-27 13:00:00,35.4,34.9,27.67,East,90,10.1,11.0,98,0.08,,---,0.17,VWS V14.01,2013-02-27 18:00:00,
2013-02-27 13:05:00,35.6,35.1,27.67,ENE,68,7.4,17.0,98,0.08,,---,0.17,VWS V14.01,2013-02-27 18:05:00,
2013-02-27 13:10:00,35.6,35.1,27.67,East,90,7.4,10.3,98,0.08,,---,0.17,VWS V14.01,2013-02-27 18:10:00,
2013-02-27 13:15:00,35.8,35.3,27.67,ESE,112,12.1,12.8,98,0.08,,---,0.17,VWS V14.01,2013-02-27 18:15:00,
2013-02-27 13:20:00,35.8,35.3,27.67,ESE,112,7.8,8.7,98,0.12,,---,0.21,VWS V14.01,2013-02-27 18:20:00,
2013-02-27 13:25:00,35.8,35.3,27.67,ENE,68,12.8,12.8,98,0.12,,---,0.21,VWS V14.01,2013-02-27 18:25:00,
2013-02-27 13:30:00,35.8,35.3,27.67,ESE,112,10.1,11.0,98,0.08,,---,0.21,VWS V14.01,2013-02-27 18:30:00,
2013-02-27 13:35:00,35.8,35.3,27.67,ESE,112,10.3,10.5,98,0.08,,---,0.21,VWS V14.01,2013-02-27 18:35:00,
2013-02-27 13:40:00,35.8,35.3,27.67,ESE,112,11.0,26.4,98,0.08,,---,0.21,VWS V14.01,2013-02-27 18:40:00,
2013-02-27 13:45:00,35.6,35.1,27.67,ESE,112,10.5,17.2,98,0.08,,---,0.21,VWS V14.01,2013-02-27 18:45:00,
2013-02-27 13:50:00,35.8,35.3,27.67,East,90,11.0,11.0,98,0.12,,---,0.25,VWS V14.01,2013-02-27 18:50:00,
2013-02-27 13:55:00,36.0,35.5,27.67,ESE,112,11.0,13.0,98,0.12,,---,0.25,VWS V14.01,2013-02-27 18:55:00,
2013-02-27 14:00:00,36.1,35.6,27.67,ESE,112,15.7,20.8,98,0.08,,---,0.25,VWS V14.01,2013-02-27 19:00:00,
2013-02-27 14:05:00,36.1,35.6,27.64,ESE,112,12.5,19.2,98,0.08,,---,0.25,VWS V14.01,2013-02-27 19:05:00,
2013-02-27 14:10:00,36.1,35.6,27.64,ESE,112,12.5,15.4,98,0.08,,---,0.25,VWS V14.01,2013-02-27 19:10:00,
2013-02-27 14:15:00,36.1,0.0,27.64,ESE,112,7.4,15.2,100,0.12,,---,0.29,VWS V14.01,2013-02-27 19:15:00,
2013-02-27 14:20:00,36.0,35.5,27.64,ENE,68,12.3,12.3,98,0.08,,---,0.29,VWS V14.01,2013-02-27 19:20:00,
2013-02-27 14:25:00,36.0,35.5,27.64,ESE,112,10.3,10.3,98,0.08,,---,0.29,VWS V14.01,2013-02-27 19:25:00,
2013-02-27 14:30:00,36.1,35.6,27.64,ENE,68,11.9,20.8,98,0.08,,---,0.29,VWS V14.01,2013-02-27 19:30:00,
2013-02-27 14:35:00,36.1,35.6,27.64,ESE,112,19.2,19.2,98,0.08,,---,0.29,VWS V14.01,2013-02-27 19:35:00,
2013-02-27 14:40:00,36.1,35.6,27.64,East,90,13.4,13.4,98,0.08,,---,0.29,VWS V14.01,2013-02-27 19:40:00,
2013-02-27 14:45:00,36.0,35.5,27.64,ENE,68,13.0,19.5,98,0.08,,---,0.29,VWS V14.01,2013-02-27 19:45:00,
2013-02-27 14:50:00,36.0,35.5,27.61,ENE,68,17.2,17.2,98,0.04,,---,0.29,VWS V14.01,2013-02-27 19:50:00,
2013-02-27 14:55:00,36.0,35.5,27.61,ESE,112,11.0,11.0,98,0.04,,---,0.29,VWS V14.01,2013-02-27 19:55:00,
2013-02-27 15:00:00,36.0,35.5,27.61,ESE,112,7.8,15.9,98,0.04,,---,0.29,VWS V14.01,2013-02-27 20:00:00,
2013-02-27 15:05:00,35.8,35.3,27.61,East,90,8.5,17.2,98,0.08,,---,0.33,VWS V14.01,2013-02-27 20:05:00,
2013-02-27 15:10:00,35.8,35.3,27.61,ESE,112,11.2,15.2,98,0.08,,---,0.33,VWS V14.01,2013-02-27 20:10:00,
2013-02-27 15:15:00,35.8,35.3,27.61,ESE,112,7.8,10.3,98,0.04,,---,0.33,VWS V14.01,2013-02-27 20:15:00,
2013-02-27 15:20:00,35.8,35.3,27.61,ESE,112,19.2,19.2,98,0.04,,---,0.33,VWS V14.01,2013-02-27 20:20:00,
2013-02-27 15:25:00,35.8,35.3,27.61,ESE,112,15.4,23.0,98,0.04,,---,0.33,VWS V14.01,2013-02-27 20:25:00,
2013-02-27 15:30:00,35.8,35.3,27.61,ESE,112,10.5,13.2,98,0.04,,---,0.33,VWS V14.01,2013-02-27 20:30:00,
2013-02-27 15:35:00,35.6,35.1,27.61,ESE,112,7.2,10.3,98,0.04,,---,0.33,VWS V14.01,2013-02-27 20:35:00,
2013-02-27 15:40:00,35.6,35.1,27.61,East,90,10.5,16.1,98,0.04,,---,0.33,VWS V14.01,2013-02-27 20:40:00,
2013-02-27 15:45:00,35.4,34.9,27.61,ESE,112,13.0,13.0,98,0.04,,---,0.33,VWS V14.01,2013-02-27 20:45:00,
2013-02-27 15:50:00,35.4,34.9,27.64,East,90,9.2,11.0,98,0.04,,---,0.33,VWS V14.01,2013-02-27 20:50:00,
2013-02-27 15:55:00,35.4,34.9,27.64,East,90,9.8,10.3,98,0.04,,---,0.33,VWS V14.01,2013-02-27 20:55:00,
2013-02-27 16:00:00,35.6,35.1,27.64,ESE,112,12.3,15.9,98,0.04,,---,0.33,VWS V14.01,2013-02-27 21:00:00,
2013-02-27 16:05:00,35.6,35.1,27.61,ESE,112,11.4,12.1,98,0.00,,---,0.33,VWS V14.01,2013-02-27 21:05:00,
2013-02-27 16:10:00,35.8,35.3,27.61,ESE,112,14.8,14.8,98,0.05,,---,0.38,VWS V14.01,2013-02-27 21:10:00,
2013-02-27 16:15:00,36.0,35.5,27.61,SSE,158,10.7,22.8,98,0.05,,---,0.38,VWS V14.01,2013-02-27 21:15:00,
2013-02-27 16:20:00,35.8,35.3,27.61,ESE,112,10.1,15.4,98,0.05,,---,0.38,VWS V14.01,2013-02-27 21:20:00,
2013-02-27 16:25:00,35.8,35.3,27.61,ESE,112,14.8,14.8,98,0.05,,---,0.38,VWS V14.01,2013-02-27 21:25:00,
2013-02-27 16:30:00,35.6,35.1,27.61,ESE,112,8.7,8.7,98,0.05,,---,0.38,VWS V14.01,2013-02-27 21:30:00,
2013-02-27 16:35:00,35.4,34.9,27.61,ENE,68,8.1,10.5,98,0.05,,---,0.38,VWS V14.01,2013-02-27 21:35:00,
2013-02-27 16:40:00,35.4,34.9,27.61,ESE,112,11.4,11.4,98,0.05,,---,0.38,VWS V14.01,2013-02-27 21:40:00,
2013-02-27 16:45:00,35.2,34.7,27.61,ESE,112,10.7,13.2,98,0.05,,---,0.38,VWS V14.01,2013-02-27 21:45:00,
2013-02-27 16:50:00,35.1,34.5,27.61,SE,135,5.8,8.1,98,0.05,,---,0.38,VWS V14.01,2013-02-27 21:50:00,
2013-02-27 16:55:00,34.9,34.4,27.61,ESE,112,17.7,17.7,98,0.05,,---,0.38,VWS V14.01,2013-02-27 21:55:00,
2013-02-27 17:00:00,34.7,34.2,27.61,East,90,7.8,10.1,98,0.05,,---,0.38,VWS V14.01,2013-02-27 22:00:00,
2013-02-27 17:05:00,34.5,34.0,27.61,ESE,112,13.2,13.2,98,0.05,,---,0.38,VWS V14.01,2013-02-27 22:05:00,
2013-02-27 17:10:00,34.5,34.0,27.61,ESE,112,11.0,14.8,98,0.00,,---,0.38,VWS V14.01,2013-02-27 22:10:00,
2013-02-27 17:15:00,34.3,33.8,27.61,ESE,112,5.8,17.7,98,0.00,,---,0.38,VWS V14.01,2013-02-27 22:15:00,
2013-02-27 17:20:00,34.3,33.8,27.64,ESE,112,7.4,9.2,98,0.00,,---,0.38,VWS V14.01,2013-02-27 22:20:00,
2013-02-27 17:25:00,34.3,33.8,27.64,ESE,112,8.1,13.9,98,0.00,,---,0.38,VWS V14.01,2013-02-27 22:25:00,
2013-02-27 17:30:00,34.2,33.7,27.64,East,90,7.6,8.1,98,0.00,,---,0.38,VWS V14.01,2013-02-27 22:30:00,
2013-02-27 17:35:00,34.2,33.7,27.64,ESE,112,12.1,12.1,98,0.00,,---,0.38,VWS V14.01,2013-02-27 22:35:00,
2013-02-27 17:40:00,34.0,33.5,27.64,SE,135,7.2,7.2,98,0.00,,---,0.38,VWS V14.01,2013-02-27 22:40:00,
2013-02-27 17:45:00,34.0,33.5,27.64,ENE,68,6.5,10.7,98,0.00,,---,0.38,VWS V14.01,2013-02-27 22:45:00,
2013-02-27 17:50:00,33.8,33.3,27.64,ENE,68,5.8,5.8,98,0.00,,---,0.38,VWS V14.01,2013-02-27 22:50:00,
2013-02-27 17:55:00,33.8,33.3,27.64,ENE,68,4.9,6.5,98,0.00,,---,0.38,VWS V14.01,2013-02-27 22:55:00,
2013-02-27 18:00:00,33.8,33.3,27.64,ESE,112,8.5,8.5,98,0.00,,---,0.38,VWS V14.01,2013-02-27 23:00:00,
2013-02-27 18:05:00,33.8,33.3,27.64,ENE,68,4.9,8.7,98,0.00,,---,0.38,VWS V14.01,2013-02-27 23:05:00,
2013-02-27 18:10:00,33.6,33.1,27.64,ESE,112,4.9,4.9,98,0.00,,---,0.38,VWS V14.01,2013-02-27 23:10:00,
2013-02-27 18:15:00,33.6,33.1,27.64,ESE,112,4.0,4.9,98,0.00,,---,0.38,VWS V14.01,2013-02-27 23:15:00,
2013-02-27 18:20:00,33.4,32.9,27.64,East,90,3.8,3.8,98,0.00,,---,0.38,VWS V14.01,2013-02-27 23:20:00,
2013-02-27 18:25:00,33.4,32.9,27.64,ENE,68,3.6,3.8,98,0.00,,---,0.38,VWS V14.01,2013-02-27 23:25:00,
2013-02-27 18:30:00,33.4,32.9,27.64,East,90,3.6,3.8,98,0.00,,---,0.38,VWS V14.01,2013-02-27 23:30:00,
2013-02-27 18:35:00,33.4,32.9,27.64,ESE,112,4.3,6.3,98,0.00,,---,0.38,VWS V14.01,2013-02-27 23:35:00,
2013-02-27 18:40:00,33.4,32.9,27.64,ESE,112,2.7,3.1,98,0.00,,---,0.38,VWS V14.01,2013-02-27 23:40:00,
2013-02-27 18:45:00,33.4,32.9,27.64,ESE,112,2.2,4.9,98,0.00,,---,0.38,VWS V14.01,2013-02-27 23:45:00,
2013-02-27 18:50:00,33.4,32.9,27.64,SE,135,5.8,5.8,98,0.00,,---,0.38,VWS V14.01,2013-02-27 23:50:00,
2013-02-27 18:55:00,33.4,32.9,27.64,ESE,112,3.1,3.6,98,0.00,,---,0.38,VWS V14.01,2013-02-27 23:55:00,
2013-02-27 19:00:00,33.4,32.9,27.64,ESE,112,2.0,3.6,98,0.00,,---,0.38,VWS V14.01,2013-02-28 00:00:00,
2013-02-27 19:05:00,33.3,32.8,27.67,SE,135,3.1,4.5,98,0.00,,---,0.38,VWS V14.01,2013-02-28 00:05:00,
2013-02-27 19:10:00,33.3,32.8,27.67,ESE,112,4.3,5.6,98,0.00,,---,0.38,VWS V14.01,2013-02-28 00:10:00,
2013-02-27 19:15:00,33.3,32.8,27.67,SE,135,3.4,4.0,98,0.00,,---,0.38,VWS V14.01,2013-02-28 00:15:00,
2013-02-27 19:20:00,33.3,32.8,27.67,SE,135,3.6,4.0,98,0.00,,---,0.38,VWS V14.01,2013-02-28 00:20:00,
2013-02-27 19:25:00,33.3,32.8,27.67,SE,135,5.4,5.4,98,0.00,,---,0.38,VWS V14.01,2013-02-28 00:25:00,
2013-02-27 19:30:00,33.1,32.6,27.67,SE,135,4.3,4.7,98,0.00,,---,0.38,VWS V14.01,2013-02-28 00:30:00,
2013-02-27 19:35:00,33.1,32.6,27.67,SE,135,3.8,4.3,98,0.00,,---,0.38,VWS V14.01,2013-02-28 00:35:00,
2013-02-27 19:40:00,33.1,32.6,27.67,SE,135,3.8,4.3,98,0.00,,---,0.38,VWS V14.01,2013-02-28 00:40:00,
2013-02-27 19:45:00,33.1,32.6,27.67,SE,135,2.7,3.8,98,0.00,,---,0.38,VWS V14.01,2013-02-28 00:45:00,
2013-02-27 19:50:00,33.1,32.6,27.67,SE,135,3.4,4.0,98,0.00,,---,0.38,VWS V14.01,2013-02-28 00:50:00,
2013-02-27 19:55:00,33.1,32.6,27.67,SE,135,2.5,3.4,98,0.00,,---,0.38,VWS V14.01,2013-02-28 00:55:00,
2013-02-27 20:00:00,33.1,32.6,27.67,SE,135,2.7,3.4,98,0.00,,---,0.38,VWS V14.01,2013-02-28 01:00:00,
2013-02-27 20:05:00,33.1,32.6,27.67,SE,135,3.6,3.6,98,0.00,,---,0.38,VWS V14.01,2013-02-28 01:05:00,
2013-02-27 20:10:00,33.1,32.6,27.67,SE,135,3.6,3.8,98,0.00,,---,0.38,VWS V14.01,2013-02-28 01:10:00,
2013-02-27 20:15:00,33.1,32.6,27.67,SE,135,3.6,4.7,98,0.00,,---,0.38,VWS V14.01,2013-02-28 01:15:00,
2013-02-27 20:20:00,33.3,32.8,27.67,SE,135,4.3,5.4,98,0.00,,---,0.38,VWS V14.01,2013-02-28 01:20:00,
2013-02-27 20:25:00,33.3,32.8,27.67,SE,135,4.3,6.3,98,0.00,,---,0.38,VWS V14.01,2013-02-28 01:25:00,
2013-02-27 20:30:00,33.3,32.8,27.67,SE,135,6.5,6.5,98,0.00,,---,0.38,VWS V14.01,2013-02-28 01:30:00,
2013-02-27 20:35:00,33.3,32.8,27.67,SE,135,6.5,7.2,98,0.00,,---,0.38,VWS V14.01,2013-02-28 01:35:00,
2013-02-27 20:40:00,33.4,32.9,27.67,SSE,158,8.5,8.5,98,0.00,,---,0.38,VWS V14.01,2013-02-28 01:40:00,
2013-02-27 20:45:00,33.4,32.9,27.67,SE,135,8.5,8.5,98,0.00,,---,0.38,VWS V14.01,2013-02-28 01:45:00,
2013-02-27 20:50:00,33.4,32.9,27.67,ESE,112,6.5,7.8,98,0.00,,---,0.38,VWS V14.01,2013-02-28 01:50:00,
2013-02-27 20:55:00,33.6,33.1,27.67,SE,135,8.1,8.7,98,0.00,,---,0.38,VWS V14.01,2013-02-28 01:55:00,
2013-02-27 21:00:00,33.6,33.1,27.67,SE,135,7.4,8.5,98,0.00,,---,0.38,VWS V14.01,2013-02-28 02:00:00,
2013-02-27 21:05:00,33.6,33.1,27.67,ESE,112,7.6,9.0,98,0.00,,---,0.38,VWS V14.01,2013-02-28 02:05:00,
2013-02-27 21:10:00,33.6,33.1,27.67,SE,135,6.9,6.9,98,0.00,,---,0.38,VWS V14.01,2013-02-28 02:10:00,
2013-02-27 21:15:00,33.6,33.1,27.67,SSE,158,7.8,7.8,98,0.00,,---,0.38,VWS V14.01,2013-02-28 02:15:00,
2013-02-27 21:20:00,33.6,33.1,27.67,SE,135,7.4,7.4,98,0.00,,---,0.38,VWS V14.01,2013-02-28 02:20:00,
2013-02-27 21:25:00,33.6,33.1,27.67,SSE,158,7.6,10.1,98,0.00,,---,0.38,VWS V14.01,2013-02-28 02:25:00,
2013-02-27 21:30:00,33.6,33.1,27.67,SE,135,4.9,6.3,98,0.00,,---,0.38,VWS V14.01,2013-02-28 02:30:00,
2013-02-27 21:35:00,33.6,33.1,27.67,South,180,5.4,6.0,98,0.00,,---,0.38,VWS V14.01,2013-02-28 02:35:00,
2013-02-27 21:40:00,33.6,33.1,27.67,SSE,158,6.0,8.5,98,0.00,,---,0.38,VWS V14.01,2013-02-28 02:40:00,
2013-02-27 21:45:00,33.6,33.1,27.67,SSE,158,6.0,8.5,98,0.00,,---,0.38,VWS V14.01,2013-02-28 02:45:00,
2013-02-27 21:50:00,33.4,32.9,27.67,SE,135,6.7,7.4,98,0.00,,---,0.38,VWS V14.01,2013-02-28 02:50:00,
2013-02-27 21:55:00,33.4,32.9,27.67,SE,135,5.6,6.0,98,0.00,,---,0.38,VWS V14.01,2013-02-28 02:55:00,
2013-02-27 22:00:00,33.4,32.9,27.67,SSE,158,5.4,5.4,98,0.00,,---,0.38,VWS V14.01,2013-02-28 03:00:00,
2013-02-27 22:05:00,33.3,32.8,27.67,SSE,158,3.4,3.6,98,0.00,,---,0.38,VWS V14.01,2013-02-28 03:05:00,
2013-02-27 22:10:00,33.4,32.9,27.67,ESE,112,4.3,4.3,98,0.00,,---,0.38,VWS V14.01,2013-02-28 03:10:00,
2013-02-27 22:15:00,33.4,32.9,27.67,SE,135,6.3,6.3,98,0.00,,---,0.38,VWS V14.01,2013-02-28 03:15:00,
2013-02-27 22:20:00,33.4,32.9,27.70,SE,135,5.4,5.8,98,0.00,,---,0.38,VWS V14.01,2013-02-28 03:20:00,
2013-02-27 22:25:00,33.4,32.9,27.70,SE,135,5.6,5.6,98,0.00,,---,0.38,VWS V14.01,2013-02-28 03:25:00,
2013-02-27 22:30:00,33.4,32.9,27.70,SE,135,4.9,4.9,98,0.00,,---,0.38,VWS V14.01,2013-02-28 03:30:00,
2013-02-27 22:35:00,33.6,33.1,27.70,SE,135,5.8,6.5,98,0.00,,---,0.38,VWS V14.01,2013-02-28 03:35:00,
2013-02-27 22:40:00,33.6,33.1,27.70,SSE,158,7.6,7.8,98,0.00,,---,0.38,VWS V14.01,2013-02-28 03:40:00,
2013-02-27 22:45:00,33.8,33.3,27.70,SSE,158,4.7,6.5,98,0.00,,---,0.38,VWS V14.01,2013-02-28 03:45:00,
2013-02-27 22:50:00,33.6,33.1,27.70,ESE,112,2.7,3.6,98,0.00,,---,0.38,VWS V14.01,2013-02-28 03:50:00,
2013-02-27 22:55:00,33.4,32.9,27.70,ESE,112,3.4,3.6,98,0.00,,---,0.38,VWS V14.01,2013-02-28 03:55:00,
2013-02-27 23:00:00,33.4,32.9,27.70,SSE,158,2.5,2.5,98,0.00,,---,0.38,VWS V14.01,2013-02-28 04:00:00,
2013-02-27 23:05:00,33.4,32.9,27.70,SE,135,1.3,2.5,98,0.00,,---,0.38,VWS V14.01,2013-02-28 04:05:00,
2013-02-27 23:10:00,33.6,33.1,27.70,SSE,158,4.0,6.0,98,0.00,,---,0.38,VWS V14.01,2013-02-28 04:10:00,
2013-02-27 23:15:00,33.8,33.3,27.70,SSW,202,6.3,6.3,98,0.00,,---,0.38,VWS V14.01,2013-02-28 04:15:00,
2013-02-27 23:20:00,34.0,33.5,27.67,South,180,2.9,3.6,98,0.00,,---,0.38,VWS V14.01,2013-02-28 04:20:00,
2013-02-27 23:25:00,34.0,33.5,27.67,South,180,4.0,4.0,98,0.00,,---,0.38,VWS V14.01,2013-02-28 04:25:00,
2013-02-27 23:30:00,34.0,33.5,27.67,South,180,3.8,4.5,98,0.00,,---,0.38,VWS V14.01,2013-02-28 04:30:00,
2013-02-27 23:35:00,34.0,33.5,27.67,SSE,158,3.6,4.0,98,0.00,,---,0.38,VWS V14.01,2013-02-28 04:35:00,
2013-02-27 23:40:00,34.0,33.5,27.67,SSE,158,3.8,4.3,98,0.00,,---,0.38,VWS V14.01,2013-02-28 04:40:00,
2013-02-27 23:45:00,34.0,33.5,27.67,SSE,158,4.3,5.4,98,0.00,,---,0.38,VWS V14.01,2013-02-28 04:45:00,
2013-02-27 23:50:00,34.0,33.5,27.67,SSE,158,4.7,4.7,98,0.00,,---,0.38,VWS V14.01,2013-02-28 04:50:00,
2013-02-27 23:55:00,34.0,33.5,27.67,South,180,5.8,5.8,98,0.00,,---,0.38,VWS V14.01,2013-02-28 04:55:00,